sensor_id;sensor_type;location;lat;lon;timestamp;pressure;altitude;pressure_sealevel;temperature;humidity
59513;BME280;45330;51.634;5.562;2022-07-12T00:00:44;102352.22;;;15.74;100.00
59513;BME280;45330;51.634;5.562;2022-07-12T00:03:10;102335.63;;;15.59;100.00
59513;BME280;45330;51.634;5.562;2022-07-12T00:05:35;102344.38;;;15.61;100.00
59513;BME280;45330;51.634;5.562;2022-07-12T00:08:01;102353.09;;;15.70;100.00
59513;BME280;45330;51.634;5.562;2022-07-12T00:10:26;102336.50;;;15.63;100.00
59513;BME280;45330;51.634;5.562;2022-07-12T00:12:52;102312.94;;;15.49;100.00
59513;BME280;45330;51.634;5.562;2022-07-12T00:15:19;102345.25;;;15.62;100.00
59513;BME280;45330;51.634;5.562;2022-07-12T00:17:45;102343.50;;;15.58;100.00
59513;BME280;45330;51.634;5.562;2022-07-12T00:20:10;102342.69;;;15.51;100.00
59513;BME280;45330;51.634;5.562;2022-07-12T00:22:36;102346.19;;;15.49;100.00
59513;BME280;45330;51.634;5.562;2022-07-12T00:25:01;102340.03;;;15.45;100.00
59513;BME280;45330;51.634;5.562;2022-07-12T00:27:27;102340.91;;;15.46;100.00
59513;BME280;45330;51.634;5.562;2022-07-12T00:29:53;102326.09;;;15.34;100.00
59513;BME280;45330;51.634;5.562;2022-07-12T00:32:19;102339.19;;;15.37;100.00
59513;BME280;45330;51.634;5.562;2022-07-12T00:34:44;102340.06;;;15.34;100.00
59513;BME280;45330;51.634;5.562;2022-07-12T00:37:09;102340.06;;;15.31;100.00
59513;BME280;45330;51.634;5.562;2022-07-12T00:39:35;102320.88;;;15.17;100.00
59513;BME280;45330;51.634;5.562;2022-07-12T00:42:00;102320.00;;;15.13;100.00
59513;BME280;45330;51.634;5.562;2022-07-12T00:44:26;102326.13;;;15.17;100.00
59513;BME280;45330;51.634;5.562;2022-07-12T00:46:51;102332.22;;;15.17;100.00
59513;BME280;45330;51.634;5.562;2022-07-12T00:49:18;102313.00;;;15.06;100.00
59513;BME280;45330;51.634;5.562;2022-07-12T00:51:44;102332.22;;;15.17;100.00
59513;BME280;45330;51.634;5.562;2022-07-12T00:54:09;102321.75;;;15.14;100.00
59513;BME280;45330;51.634;5.562;2022-07-12T00:56:35;102326.13;;;15.17;100.00
59513;BME280;45330;51.634;5.562;2022-07-12T00:59:01;102321.78;;;15.05;100.00
59513;BME280;45330;51.634;5.562;2022-07-12T01:01:26;102327.88;;;15.07;100.00
59513;BME280;45330;51.634;5.562;2022-07-12T01:03:52;102330.50;;;15.10;100.00
59513;BME280;45330;51.634;5.562;2022-07-12T01:06:20;102331.38;;;15.06;100.00
59513;BME280;45330;51.634;5.562;2022-07-12T01:08:45;102319.13;;;15.00;100.00
59513;BME280;45330;51.634;5.562;2022-07-12T01:11:11;102334.88;;;15.06;100.00
59513;BME280;45330;51.634;5.562;2022-07-12T01:13:37;102335.75;;;15.07;100.00
59513;BME280;45330;51.634;5.562;2022-07-12T01:16:04;102316.53;;;14.92;100.00
59513;BME280;45330;51.634;5.562;2022-07-12T01:18:31;102340.13;;;14.92;100.00
59513;BME280;45330;51.634;5.562;2022-07-12T01:21:01;102337.50;;;14.89;100.00
59513;BME280;45330;51.634;5.562;2022-07-12T01:23:28;102321.78;;;14.80;100.00
59513;BME280;45330;51.634;5.562;2022-07-12T01:25:54;102341.88;;;14.87;100.00
59513;BME280;45330;51.634;5.562;2022-07-12T01:28:19;102332.28;;;14.74;100.00
59513;BME280;45330;51.634;5.562;2022-07-12T01:30:46;102350.59;;;14.80;100.00
59513;BME280;45330;51.634;5.562;2022-07-12T01:33:12;102355.84;;;14.77;100.00
59513;BME280;45330;51.634;5.562;2022-07-12T01:35:38;102356.72;;;14.70;100.00
59513;BME280;45330;51.634;5.562;2022-07-12T01:38:04;102362.81;;;14.67;100.00
59513;BME280;45330;51.634;5.562;2022-07-12T01:40:29;102347.06;;;14.49;100.00
59513;BME280;45330;51.634;5.562;2022-07-12T01:42:55;102348.78;;;14.39;100.00
59513;BME280;45330;51.634;5.562;2022-07-12T01:45:22;102348.75;;;14.36;100.00
59513;BME280;45330;51.634;5.562;2022-07-12T01:47:47;102360.13;;;14.35;100.00
59513;BME280;45330;51.634;5.562;2022-07-12T01:50:14;102352.22;;;14.22;100.00
59513;BME280;45330;51.634;5.562;2022-07-12T01:52:41;102352.22;;;14.21;100.00
59513;BME280;45330;51.634;5.562;2022-07-12T01:55:07;102369.69;;;14.22;100.00
59513;BME280;45330;51.634;5.562;2022-07-12T01:57:33;102352.16;;;14.07;100.00
59513;BME280;45330;51.634;5.562;2022-07-12T02:00:06;102367.88;;;14.13;100.00
59513;BME280;45330;51.634;5.562;2022-07-12T02:02:32;102363.53;;;14.12;100.00
59513;BME280;45330;51.634;5.562;2022-07-12T02:04:59;102351.25;;;14.00;100.00
59513;BME280;45330;51.634;5.562;2022-07-12T02:07:25;102339.00;;;13.88;100.00
59513;BME280;45330;51.634;5.562;2022-07-12T02:09:51;102335.50;;;13.88;100.00
59513;BME280;45330;51.634;5.562;2022-07-12T02:12:16;102343.34;;;13.88;100.00
59513;BME280;45330;51.634;5.562;2022-07-12T02:14:42;102340.72;;;13.82;100.00
59513;BME280;45330;51.634;5.562;2022-07-12T02:17:07;102331.09;;;13.75;100.00
59513;BME280;45330;51.634;5.562;2022-07-12T02:19:33;102351.19;;;13.83;100.00
59513;BME280;45330;51.634;5.562;2022-07-12T02:21:58;102346.81;;;13.82;100.00
59513;BME280;45330;51.634;5.562;2022-07-12T02:24:23;102317.97;;;13.67;100.00
59513;BME280;45330;51.634;5.562;2022-07-12T02:26:49;102338.03;;;13.68;100.00
59513;BME280;45330;51.634;5.562;2022-07-12T02:29:15;102349.41;;;13.73;100.00
59513;BME280;45330;51.634;5.562;2022-07-12T02:31:40;102328.41;;;13.59;100.00
59513;BME280;45330;51.634;5.562;2022-07-12T02:34:06;102342.41;;;13.70;100.00
59513;BME280;45330;51.634;5.562;2022-07-12T02:36:31;102323.19;;;13.59;100.00
59513;BME280;45330;51.634;5.562;2022-07-12T02:38:57;102324.03;;;13.61;100.00
59513;BME280;45330;51.634;5.562;2022-07-12T02:41:27;102327.56;;;13.65;100.00
59513;BME280;45330;51.634;5.562;2022-07-12T02:43:52;102326.72;;;13.69;100.00
59513;BME280;45330;51.634;5.562;2022-07-12T02:46:18;102335.44;;;13.71;100.00
59513;BME280;45330;51.634;5.562;2022-07-12T02:48:43;102348.53;;;13.72;100.00
59513;BME280;45330;51.634;5.562;2022-07-12T02:51:09;102349.41;;;13.73;100.00
59513;BME280;45330;51.634;5.562;2022-07-12T02:53:35;102349.41;;;13.70;100.00
59513;BME280;45330;51.634;5.562;2022-07-12T02:56:01;102346.78;;;13.70;100.00
59513;BME280;45330;51.634;5.562;2022-07-12T02:58:26;102351.13;;;13.68;100.00
59513;BME280;45330;51.634;5.562;2022-07-12T03:00:52;102351.09;;;13.63;100.00
59513;BME280;45330;51.634;5.562;2022-07-12T03:03:18;102337.97;;;13.55;100.00
59513;BME280;45330;51.634;5.562;2022-07-12T03:05:43;102324.84;;;13.45;100.00
59513;BME280;45330;51.634;5.562;2022-07-12T03:08:10;102331.84;;;13.47;100.00
59513;BME280;45330;51.634;5.562;2022-07-12T03:10:36;102350.19;;;13.57;100.00
59513;BME280;45330;51.634;5.562;2022-07-12T03:13:02;102351.94;;;13.54;100.00
59513;BME280;45330;51.634;5.562;2022-07-12T03:15:29;102356.28;;;13.57;100.00
59513;BME280;45330;51.634;5.562;2022-07-12T03:17:55;102354.56;;;13.54;100.00
59513;BME280;45330;51.634;5.562;2022-07-12T03:20:21;102358.88;;;13.54;100.00
59513;BME280;45330;51.634;5.562;2022-07-12T03:22:47;102349.25;;;13.48;100.00
59513;BME280;45330;51.634;5.562;2022-07-12T03:25:14;102325.63;;;13.34;100.00
59513;BME280;45330;51.634;5.562;2022-07-12T03:27:40;102342.25;;;13.38;100.00
59513;BME280;45330;51.634;5.562;2022-07-12T03:30:06;102339.63;;;13.38;100.00
59513;BME280;45330;51.634;5.562;2022-07-12T03:32:32;102324.72;;;13.28;100.00
59513;BME280;45330;51.634;5.562;2022-07-12T03:34:58;102343.91;;;13.34;100.00
59513;BME280;45330;51.634;5.562;2022-07-12T03:37:23;102343.03;;;13.32;100.00
59513;BME280;45330;51.634;5.562;2022-07-12T03:39:49;102333.44;;;13.28;100.00
59513;BME280;45330;51.634;5.562;2022-07-12T03:42:14;102338.66;;;13.30;100.00
59513;BME280;45330;51.634;5.562;2022-07-12T03:44:39;102331.66;;;13.26;100.00
59513;BME280;45330;51.634;5.562;2022-07-12T03:47:05;102318.56;;;13.18;100.00
59513;BME280;45330;51.634;5.562;2022-07-12T03:49:31;102316.78;;;13.15;100.00
59513;BME280;45330;51.634;5.562;2022-07-12T03:51:56;102344.78;;;13.32;100.00
59513;BME280;45330;51.634;5.562;2022-07-12T03:54:22;102355.31;;;13.36;100.00
59513;BME280;45330;51.634;5.562;2022-07-12T03:56:47;102327.28;;;13.23;100.00
59513;BME280;45330;51.634;5.562;2022-07-12T03:59:32;102331.69;;;13.29;100.00
59513;BME280;45330;51.634;5.562;2022-07-12T04:01:57;102348.34;;;13.42;100.00
59513;BME280;45330;51.634;5.562;2022-07-12T04:04:23;102324.72;;;13.29;100.00
59513;BME280;45330;51.634;5.562;2022-07-12T04:06:48;102319.50;;;13.32;100.00
59513;BME280;45330;51.634;5.562;2022-07-12T04:09:14;102324.81;;;13.38;100.00
59513;BME280;45330;51.634;5.562;2022-07-12T04:11:40;102334.47;;;13.47;100.00
59513;BME280;45330;51.634;5.562;2022-07-12T04:14:05;102319.56;;;13.40;100.00
59513;BME280;45330;51.634;5.562;2022-07-12T04:16:30;102329.19;;;13.46;100.00
59513;BME280;45330;51.634;5.562;2022-07-12T04:18:56;102343.25;;;13.59;100.00
59513;BME280;45330;51.634;5.562;2022-07-12T04:21:21;102343.25;;;13.60;100.00
59513;BME280;45330;51.634;5.562;2022-07-12T04:23:47;102354.59;;;13.64;100.00
59513;BME280;45330;51.634;5.562;2022-07-12T04:26:12;102344.13;;;13.62;100.00
59513;BME280;45330;51.634;5.562;2022-07-12T04:28:38;102352.88;;;13.69;100.00
59513;BME280;45330;51.634;5.562;2022-07-12T04:31:03;102337.13;;;13.60;100.00
59513;BME280;45330;51.634;5.562;2022-07-12T04:33:28;102359.03;;;13.79;100.00
59513;BME280;45330;51.634;5.562;2022-07-12T04:35:54;102345.03;;;13.70;100.00
59513;BME280;45330;51.634;5.562;2022-07-12T04:38:19;102368.72;;;14.06;100.00
59513;BME280;45330;51.634;5.562;2022-07-12T04:40:45;102361.06;;;15.26;100.00
59513;BME280;45330;51.634;5.562;2022-07-12T04:43:10;102358.63;;;16.91;100.00
59513;BME280;45330;51.634;5.562;2022-07-12T04:45:36;102360.63;;;18.27;94.88
59513;BME280;45330;51.634;5.562;2022-07-12T04:48:01;102347.50;;;19.33;86.46
59513;BME280;45330;51.634;5.562;2022-07-12T04:50:27;102360.50;;;20.30;80.65
59513;BME280;45330;51.634;5.562;2022-07-12T04:52:52;102345.66;;;21.00;75.74
59513;BME280;45330;51.634;5.562;2022-07-12T04:55:17;102345.06;;;21.54;73.16
59513;BME280;45330;51.634;5.562;2022-07-12T04:57:43;102343.50;;;22.38;69.62
59513;BME280;45330;51.634;5.562;2022-07-12T05:00:09;102365.34;;;23.00;65.99
59513;BME280;45330;51.634;5.562;2022-07-12T05:02:34;102363.44;;;23.56;64.05
59513;BME280;45330;51.634;5.562;2022-07-12T05:04:59;102363.31;;;23.83;61.81
59513;BME280;45330;51.634;5.562;2022-07-12T05:07:25;102339.94;;;24.14;60.52
59513;BME280;45330;51.634;5.562;2022-07-12T05:09:51;102360.59;;;24.96;57.77
59513;BME280;45330;51.634;5.562;2022-07-12T05:12:17;102359.00;;;24.92;56.81
59513;BME280;45330;51.634;5.562;2022-07-12T05:14:43;102341.50;;;24.87;56.78
59513;BME280;45330;51.634;5.562;2022-07-12T05:17:08;102356.28;;;24.94;55.55
59513;BME280;45330;51.634;5.562;2022-07-12T05:19:34;102376.00;;;25.51;54.99
59513;BME280;45330;51.634;5.562;2022-07-12T05:21:59;102375.94;;;25.72;53.71
59513;BME280;45330;51.634;5.562;2022-07-12T05:24:25;102376.47;;;25.99;52.92
59513;BME280;45330;51.634;5.562;2022-07-12T05:26:50;102379.50;;;26.30;51.08
59513;BME280;45330;51.634;5.562;2022-07-12T05:29:15;102385.97;;;26.43;50.84
59513;BME280;45330;51.634;5.562;2022-07-12T05:31:41;102382.38;;;26.81;50.21
59513;BME280;45330;51.634;5.562;2022-07-12T05:34:06;102388.66;;;26.80;49.51
59513;BME280;45330;51.634;5.562;2022-07-12T05:36:32;102383.88;;;25.93;51.73
59513;BME280;45330;51.634;5.562;2022-07-12T05:38:57;102398.97;;;26.32;51.27
59513;BME280;45330;51.634;5.562;2022-07-12T05:41:22;102390.84;;;26.72;50.03
59513;BME280;45330;51.634;5.562;2022-07-12T05:43:48;102385.34;;;27.10;48.92
59513;BME280;45330;51.634;5.562;2022-07-12T05:46:13;102408.25;;;27.66;47.27
59513;BME280;45330;51.634;5.562;2022-07-12T05:48:39;102411.75;;;27.84;46.86
59513;BME280;45330;51.634;5.562;2022-07-12T05:51:04;102411.94;;;27.97;45.92
59513;BME280;45330;51.634;5.562;2022-07-12T05:53:48;102424.44;;;27.81;46.30
59513;BME280;45330;51.634;5.562;2022-07-12T05:56:14;102415.06;;;27.72;46.48
59513;BME280;45330;51.634;5.562;2022-07-12T05:58:40;102428.38;;;26.49;49.43
59513;BME280;45330;51.634;5.562;2022-07-12T06:01:06;102415.66;;;24.96;53.76
59513;BME280;45330;51.634;5.562;2022-07-12T06:03:32;102434.84;;;24.60;55.79
59513;BME280;45330;51.634;5.562;2022-07-12T06:05:57;102427.81;;;25.24;54.47
59513;BME280;45330;51.634;5.562;2022-07-12T06:08:23;102426.03;;;26.05;52.14
59513;BME280;45330;51.634;5.562;2022-07-12T06:10:48;102430.06;;;26.14;51.04
59513;BME280;45330;51.634;5.562;2022-07-12T06:13:13;102429.13;;;26.34;50.95
59513;BME280;45330;51.634;5.562;2022-07-12T06:15:39;102434.06;;;26.97;49.95
59513;BME280;45330;51.634;5.562;2022-07-12T06:18:04;102426.28;;;27.63;48.11
59513;BME280;45330;51.634;5.562;2022-07-12T06:20:30;102447.84;;;27.60;47.89
59513;BME280;45330;51.634;5.562;2022-07-12T06:22:56;102441.56;;;27.43;48.07
59513;BME280;45330;51.634;5.562;2022-07-12T06:25:21;102429.88;;;26.74;49.95
59513;BME280;45330;51.634;5.562;2022-07-12T06:27:48;102440.66;;;26.73;50.09
59513;BME280;45330;51.634;5.562;2022-07-12T06:30:16;102441.22;;;26.79;50.32
59513;BME280;45330;51.634;5.562;2022-07-12T06:32:43;102434.97;;;26.23;52.62
59513;BME280;45330;51.634;5.562;2022-07-12T06:35:09;102425.69;;;25.52;54.52
59513;BME280;45330;51.634;5.562;2022-07-12T06:37:34;102438.00;;;25.55;55.05
59513;BME280;45330;51.634;5.562;2022-07-12T06:39:59;102425.75;;;25.72;54.98
59513;BME280;45330;51.634;5.562;2022-07-12T06:42:25;102413.78;;;25.80;53.38
59513;BME280;45330;51.634;5.562;2022-07-12T06:44:50;102419.78;;;25.46;54.50
59513;BME280;45330;51.634;5.562;2022-07-12T06:47:15;102419.81;;;25.24;55.42
59513;BME280;45330;51.634;5.562;2022-07-12T06:49:41;102433.13;;;25.24;55.81
59513;BME280;45330;51.634;5.562;2022-07-12T06:52:06;102420.31;;;25.54;55.73
59513;BME280;45330;51.634;5.562;2022-07-12T06:54:32;102434.94;;;26.42;53.61
59513;BME280;45330;51.634;5.562;2022-07-12T06:56:57;102435.41;;;27.24;50.76
59513;BME280;45330;51.634;5.562;2022-07-12T06:59:22;102437.47;;;27.53;49.25
59513;BME280;45330;51.634;5.562;2022-07-12T07:01:49;102422.84;;;26.54;50.10
59513;BME280;45330;51.634;5.562;2022-07-12T07:04:17;102434.56;;;25.32;55.53
59513;BME280;45330;51.634;5.562;2022-07-12T07:06:42;102439.25;;;24.37;58.83
59513;BME280;45330;51.634;5.562;2022-07-12T07:09:08;102430.34;;;23.67;61.21
59513;BME280;45330;51.634;5.562;2022-07-12T07:11:34;102432.88;;;23.20;63.18
59513;BME280;45330;51.634;5.562;2022-07-12T07:14:00;102430.88;;;23.00;64.55
59513;BME280;45330;51.634;5.562;2022-07-12T07:16:25;102419.97;;;22.81;66.06
59513;BME280;45330;51.634;5.562;2022-07-12T07:18:50;102434.56;;;22.67;66.23
59513;BME280;45330;51.634;5.562;2022-07-12T07:21:16;102431.28;;;22.59;68.12
59513;BME280;45330;51.634;5.562;2022-07-12T07:23:41;102433.41;;;22.76;69.05
59513;BME280;45330;51.634;5.562;2022-07-12T07:26:07;102425.78;;;22.92;68.59
59513;BME280;45330;51.634;5.562;2022-07-12T07:28:32;102431.72;;;23.00;66.17
59513;BME280;45330;51.634;5.562;2022-07-12T07:30:57;102414.78;;;23.04;66.98
59513;BME280;45330;51.634;5.562;2022-07-12T07:33:24;102429.78;;;23.05;66.20
59513;BME280;45330;51.634;5.562;2022-07-12T07:35:51;102421.31;;;22.94;66.62
59513;BME280;45330;51.634;5.562;2022-07-12T07:38:19;102431.78;;;22.99;67.14
59513;BME280;45330;51.634;5.562;2022-07-12T07:40:44;102433.25;;;23.07;66.53
59513;BME280;45330;51.634;5.562;2022-07-12T07:43:11;102416.09;;;23.18;65.74
59513;BME280;45330;51.634;5.562;2022-07-12T07:45:36;102426.25;;;23.57;65.37
59513;BME280;45330;51.634;5.562;2022-07-12T07:48:02;102435.97;;;23.83;64.34
59513;BME280;45330;51.634;5.562;2022-07-12T07:50:28;102426.19;;;23.84;63.79
59513;BME280;45330;51.634;5.562;2022-07-12T07:52:53;102426.22;;;24.07;63.08
59513;BME280;45330;51.634;5.562;2022-07-12T07:55:19;102419.59;;;23.95;62.53
59513;BME280;45330;51.634;5.562;2022-07-12T07:57:44;102420.63;;;23.91;62.44
59513;BME280;45330;51.634;5.562;2022-07-12T08:00:12;102424.72;;;24.00;62.90
59513;BME280;45330;51.634;5.562;2022-07-12T08:02:37;102432.69;;;24.24;62.88
59513;BME280;45330;51.634;5.562;2022-07-12T08:05:03;102431.94;;;24.20;61.26
59513;BME280;45330;51.634;5.562;2022-07-12T08:07:29;102418.69;;;24.19;61.22
59513;BME280;45330;51.634;5.562;2022-07-12T08:09:54;102429.38;;;24.41;61.82
59513;BME280;45330;51.634;5.562;2022-07-12T08:12:19;102421.59;;;24.36;60.34
59513;BME280;45330;51.634;5.562;2022-07-12T08:14:45;102413.97;;;24.49;60.36
59513;BME280;45330;51.634;5.562;2022-07-12T08:17:10;102429.94;;;24.73;60.44
59513;BME280;45330;51.634;5.562;2022-07-12T08:19:35;102415.84;;;24.69;59.23
59513;BME280;45330;51.634;5.562;2022-07-12T08:22:01;102430.34;;;24.84;59.09
59513;BME280;45330;51.634;5.562;2022-07-12T08:24:26;102425.19;;;24.79;57.96
59513;BME280;45330;51.634;5.562;2022-07-12T08:26:52;102412.31;;;24.91;57.70
59513;BME280;45330;51.634;5.562;2022-07-12T08:29:17;102421.66;;;25.01;58.42
59513;BME280;45330;51.634;5.562;2022-07-12T08:31:43;102420.53;;;25.07;57.85
59513;BME280;45330;51.634;5.562;2022-07-12T08:34:08;102431.19;;;25.07;57.79
59513;BME280;45330;51.634;5.562;2022-07-12T08:36:34;102434.06;;;25.02;54.42
59513;BME280;45330;51.634;5.562;2022-07-12T08:39:00;102434.09;;;25.00;56.27
59513;BME280;45330;51.634;5.562;2022-07-12T08:41:25;102437.09;;;24.93;55.48
59513;BME280;45330;51.634;5.562;2022-07-12T08:43:51;102441.50;;;25.14;54.32
59513;BME280;45330;51.634;5.562;2022-07-12T08:46:16;102427.63;;;25.06;54.86
59513;BME280;45330;51.634;5.562;2022-07-12T08:48:43;102443.03;;;24.99;54.46
59513;BME280;45330;51.634;5.562;2022-07-12T08:51:19;102440.72;;;24.90;56.27
59513;BME280;45330;51.634;5.562;2022-07-12T08:53:45;102439.19;;;24.85;54.68
59513;BME280;45330;51.634;5.562;2022-07-12T08:56:29;102450.88;;;25.03;57.45
59513;BME280;45330;51.634;5.562;2022-07-12T08:59:11;102450.88;;;25.03;55.96
59513;BME280;45330;51.634;5.562;2022-07-12T09:01:41;102428.53;;;24.85;56.62
59513;BME280;45330;51.634;5.562;2022-07-12T09:04:15;102442.25;;;24.75;57.59
59513;BME280;45330;51.634;5.562;2022-07-12T09:06:40;102451.88;;;24.56;58.94
59513;BME280;45330;51.634;5.562;2022-07-12T09:09:06;102460.31;;;24.43;58.98
59513;BME280;45330;51.634;5.562;2022-07-12T09:11:35;102442.50;;;24.22;56.62
59513;BME280;45330;51.634;5.562;2022-07-12T09:14:01;102449.63;;;24.21;58.50
59513;BME280;45330;51.634;5.562;2022-07-12T09:16:28;102452.03;;;24.29;58.39
59513;BME280;45330;51.634;5.562;2022-07-12T09:19:13;102455.97;;;24.41;57.42
59513;BME280;45330;51.634;5.562;2022-07-12T09:21:52;102446.44;;;24.35;58.41
59513;BME280;45330;51.634;5.562;2022-07-12T09:24:18;102449.69;;;24.43;57.11
59513;BME280;45330;51.634;5.562;2022-07-12T09:26:44;102451.78;;;24.35;55.22
59513;BME280;45330;51.634;5.562;2022-07-12T09:29:11;102449.44;;;24.26;56.21
59513;BME280;45330;51.634;5.562;2022-07-12T09:31:38;102442.63;;;24.19;53.71
59513;BME280;45330;51.634;5.562;2022-07-12T09:34:04;102450.56;;;24.20;56.23
59513;BME280;45330;51.634;5.562;2022-07-12T09:36:56;102432.44;;;24.08;56.82
59513;BME280;45330;51.634;5.562;2022-07-12T09:39:22;102441.59;;;24.23;58.07
59513;BME280;45330;51.634;5.562;2022-07-12T09:41:49;102436.00;;;24.30;57.77
59513;BME280;45330;51.634;5.562;2022-07-12T09:44:15;102439.50;;;24.31;57.56
59513;BME280;45330;51.634;5.562;2022-07-12T09:46:43;102431.09;;;24.20;58.27
59513;BME280;45330;51.634;5.562;2022-07-12T09:49:10;102428.88;;;24.31;58.78
59513;BME280;45330;51.634;5.562;2022-07-12T09:51:37;102427.56;;;24.41;59.89
59513;BME280;45330;51.634;5.562;2022-07-12T09:54:03;102435.50;;;24.43;59.22
59513;BME280;45330;51.634;5.562;2022-07-12T09:56:34;102418.03;;;24.36;57.88
59513;BME280;45330;51.634;5.562;2022-07-12T09:59:01;102432.97;;;24.40;58.60
59513;BME280;45330;51.634;5.562;2022-07-12T10:01:29;102424.91;;;24.41;59.62
59513;BME280;45330;51.634;5.562;2022-07-12T10:03:56;102426.31;;;24.52;59.35
59513;BME280;45330;51.634;5.562;2022-07-12T10:06:26;102418.78;;;24.63;58.46
59513;BME280;45330;51.634;5.562;2022-07-12T10:08:54;102416.41;;;24.77;59.08
59513;BME280;45330;51.634;5.562;2022-07-12T10:11:21;102411.03;;;24.79;57.28
59513;BME280;45330;51.634;5.562;2022-07-12T10:13:47;102414.03;;;24.92;59.22
59513;BME280;45330;51.634;5.562;2022-07-12T10:16:14;102416.78;;;24.90;57.57
59513;BME280;45330;51.634;5.562;2022-07-12T10:18:41;102410.72;;;24.87;58.03
59513;BME280;45330;51.634;5.562;2022-07-12T10:21:20;102405.00;;;24.96;59.43
59513;BME280;45330;51.634;5.562;2022-07-12T10:23:47;102413.72;;;24.99;58.33
59513;BME280;45330;51.634;5.562;2022-07-12T10:31:20;102400.81;;;25.31;58.18
59513;BME280;45330;51.634;5.562;2022-07-12T10:33:47;102411.38;;;25.34;57.24
59513;BME280;45330;51.634;5.562;2022-07-12T10:36:13;102379.84;;;25.24;56.46
59513;BME280;45330;51.634;5.562;2022-07-12T10:38:38;102396.84;;;25.42;58.73
59513;BME280;45330;51.634;5.562;2022-07-12T10:41:17;102405.47;;;25.48;57.02
59513;BME280;45330;51.634;5.562;2022-07-12T10:44:03;102384.50;;;25.60;56.71
59513;BME280;45330;51.634;5.562;2022-07-12T10:46:31;102399.88;;;25.93;55.23
59513;BME280;45330;51.634;5.562;2022-07-12T10:49:27;102406.28;;;26.09;56.82
59513;BME280;45330;51.634;5.562;2022-07-12T10:54:41;102391.19;;;26.08;55.69
59513;BME280;45330;51.634;5.562;2022-07-12T10:57:06;102401.50;;;26.16;54.37
59513;BME280;45330;51.634;5.562;2022-07-12T10:59:34;102405.97;;;26.15;53.92
59513;BME280;45330;51.634;5.562;2022-07-12T11:02:00;102405.03;;;26.16;53.22
59513;BME280;45330;51.634;5.562;2022-07-12T11:04:26;102410.22;;;26.19;52.25
59513;BME280;45330;51.634;5.562;2022-07-12T11:06:53;102413.47;;;26.26;53.09
59513;BME280;45330;51.634;5.562;2022-07-12T11:09:20;102412.41;;;26.30;51.78
59513;BME280;45330;51.634;5.562;2022-07-12T11:11:48;102416.00;;;26.29;50.74
59513;BME280;45330;51.634;5.562;2022-07-12T11:14:44;102401.88;;;26.64;52.41
59513;BME280;45330;51.634;5.562;2022-07-12T11:17:10;102404.06;;;26.92;49.97
59513;BME280;45330;51.634;5.562;2022-07-12T11:19:35;102396.22;;;27.07;52.43
59513;BME280;45330;51.634;5.562;2022-07-12T11:22:01;102396.59;;;27.16;49.57
59513;BME280;45330;51.634;5.562;2022-07-12T11:24:33;102400.50;;;27.27;49.57
59513;BME280;45330;51.634;5.562;2022-07-12T11:27:00;102394.22;;;27.28;50.01
59513;BME280;45330;51.634;5.562;2022-07-12T11:29:26;102388.03;;;27.45;49.42
59513;BME280;45330;51.634;5.562;2022-07-12T11:32:03;102397.16;;;27.90;50.03
59513;BME280;45330;51.634;5.562;2022-07-12T11:34:30;102398.63;;;27.96;47.54
59513;BME280;45330;51.634;5.562;2022-07-12T11:36:57;102391.72;;;27.92;46.89
59513;BME280;45330;51.634;5.562;2022-07-12T11:39:40;102379.53;;;28.03;46.84
59513;BME280;45330;51.634;5.562;2022-07-12T11:42:07;102387.47;;;28.05;46.54
59513;BME280;45330;51.634;5.562;2022-07-12T11:44:52;102363.75;;;27.81;47.85
59513;BME280;45330;51.634;5.562;2022-07-12T11:47:19;102394.19;;;27.63;47.52
59513;BME280;45330;51.634;5.562;2022-07-12T11:49:47;102394.38;;;27.42;48.22
59513;BME280;45330;51.634;5.562;2022-07-12T11:52:17;102395.56;;;27.36;47.49
59513;BME280;45330;51.634;5.562;2022-07-12T11:54:46;102376.22;;;27.31;46.87
59513;BME280;45330;51.634;5.562;2022-07-12T11:57:12;102391.16;;;27.53;44.26
59513;BME280;45330;51.634;5.562;2022-07-12T11:59:39;102375.13;;;27.35;44.62
59513;BME280;45330;51.634;5.562;2022-07-12T12:02:12;102378.78;;;27.68;45.74
59513;BME280;45330;51.634;5.562;2022-07-12T12:04:53;102391.44;;;27.80;45.65
59513;BME280;45330;51.634;5.562;2022-07-12T12:07:20;102377.72;;;27.70;44.71
59513;BME280;45330;51.634;5.562;2022-07-12T12:10:10;102388.69;;;27.66;44.82
59513;BME280;45330;51.634;5.562;2022-07-12T12:12:38;102389.56;;;27.82;45.94
59513;BME280;45330;51.634;5.562;2022-07-12T12:15:07;102368.13;;;27.66;44.86
59513;BME280;45330;51.634;5.562;2022-07-12T12:17:34;102368.22;;;27.65;42.69
59513;BME280;45330;51.634;5.562;2022-07-12T12:20:30;102374.56;;;27.96;44.48
59513;BME280;45330;51.634;5.562;2022-07-12T12:22:57;102369.94;;;27.99;40.79
59513;BME280;45330;51.634;5.562;2022-07-12T12:25:24;102382.03;;;28.06;40.52
59513;BME280;45330;51.634;5.562;2022-07-12T12:27:58;102360.53;;;28.08;42.29
59513;BME280;45330;51.634;5.562;2022-07-12T12:30:24;102351.38;;;28.12;39.67
59513;BME280;45330;51.634;5.562;2022-07-12T12:32:51;102371.31;;;28.22;38.34
59513;BME280;45330;51.634;5.562;2022-07-12T12:35:33;102349.53;;;27.97;40.71
59513;BME280;45330;51.634;5.562;2022-07-12T12:38:21;102359.53;;;27.93;40.00
59513;BME280;45330;51.634;5.562;2022-07-12T12:40:52;102346.00;;;27.96;42.36
59513;BME280;45330;51.634;5.562;2022-07-12T12:43:20;102361.72;;;28.18;41.90
59513;BME280;45330;51.634;5.562;2022-07-12T12:45:54;102344.63;;;28.37;42.00
59513;BME280;45330;51.634;5.562;2022-07-12T12:50:50;102362.25;;;28.41;40.19
59513;BME280;45330;51.634;5.562;2022-07-12T12:53:21;102360.84;;;28.50;41.40
59513;BME280;45330;51.634;5.562;2022-07-12T12:55:50;102357.69;;;28.57;40.87